KRNT - Renton, Washington, USA
Distance from station: W 21mi, 33km
Updated: Wed, 05-Oct-2022 9:53pm PDT
Mist, Clear
Mist, Clear
 Wind from calm
Wind: Calm
Temperature: 55°F , 13°C
Dew Point: 54°F , 12°C
Humidity: 94%
Barometer: 30.17 inHg , 1021.7 hPa
Visibility: 6 miles , 10 km
2022/10/06 04:53 KRNT 060453Z AUTO 00000KT 6SM BR CLR 13/12 A3017 RMK AO2 SLP220 T01330117
KBFI - Seattle/Boeing, Washington, USA
Distance from station: W 25mi, 41km
Updated: Wed, 05-Oct-2022 9:53pm PDT
Mist, Clear
Mist, Clear
 Wind from calm
Wind: Calm
Temperature: 55°F , 13°C
Dew Point: 54°F , 12°C
Humidity: 94%
Barometer: 30.17 inHg , 1021.7 hPa
Visibility: 6 miles , 10 km
2022/10/06 04:53 KBFI 060453Z 00000KT 6SM BR CLR 13/12 A3017 RMK AO2 SLP216 T01330122
 
KSEA - Seattle/Metro, Washington, USA
Distance from station: W 25mi, 41km
Updated: Wed, 05-Oct-2022 9:53pm PDT
Mist, Few clouds
Mist, Few clouds
 Wind from N
Wind: N 5 mph , 7 km/h
Temperature: 57°F , 14°C
Dew Point: 54°F , 12°C
Humidity: 88%
Barometer: 30.18 inHg , 1022 hPa
Visibility: 5 miles , 8 km
Cloud details: 1300 ft
2022/10/06 04:53 KSEA 060453Z 36004KT 5SM BR FEW013 14/12 A3018 RMK AO2 SLP226 T01390117
KSMP - Stampede Pass, Washington, USA
Distance from station: SE 26mi, 41km
Updated: Wed, 05-Oct-2022 9:56pm PDT
Haze, Clear
Haze, Clear
 Wind from calm
Wind: Calm
Temperature: 61°F , 16°C
Dew Point: 43°F , 6°C
Humidity: 52%
Barometer: 30.26 inHg , 1024.7 hPa
Visibility: 6 miles , 10 km
2022/10/06 04:56 KSMP 060456Z AUTO 00000KT 6SM HZ CLR 16/06 A3026 RMK AO2 SLP223 T01560061
 
KPLU - Puyallup/Thun, Washington, USA
Distance from station: SW 36mi, 59km
Updated: Wed, 05-Oct-2022 9:55pm PDT
Light drizzle, Overcast
Light drizzle, Overcast
 Wind from calm
Wind: Calm
Temperature: 55°F , 13°C
Dew Point: 55°F , 13°C
Humidity: 100%
Barometer: 30.18 inHg , 1022 hPa
Visibility: 3 miles , 5 km
Cloud details: 900 ft
2022/10/06 04:55 KPLU 060455Z AUTO 00000KT 3SM -DZ OVC009 13/13 A3018 RMK AO2
KPAE - Everett, Washington, USA
Distance from station: NW 37mi, 60km
Updated: Wed, 05-Oct-2022 9:53pm PDT

 Wind from N
Wind: N 3 mph , 6 km/h
Temperature: 55°F , 13°C
Dew Point: 52°F , 11°C
Humidity: 88%
Barometer: 30.19 inHg , 1022.4 hPa
Visibility: 10 miles , 16 km
2022/10/06 04:53 KPAE 060453Z AUTO 36003KT 10SM CLR 13/11 A3019 RMK AO2 SLP221 T01280106
 
KTIW - Tacoma, Washington, USA
Distance from station: WSW 41mi, 66km
Updated: Wed, 05-Oct-2022 9:53pm PDT
Mist, Clear
Mist, Clear
 Wind from calm
Wind: Calm
Temperature: 55°F , 13°C
Dew Point: 54°F , 12°C
Humidity: 94%
Barometer: 30.18 inHg , 1022 hPa
Visibility: 5 miles , 8 km
2022/10/06 04:53 KTIW 060453Z AUTO 00000KT 5SM BR CLR 13/12 A3018 RMK AO2 SLP220 T01280122
KTCM - Tacoma/Mc Chord, Washington, USA
Distance from station: SW 42mi, 67km
Updated: Wed, 05-Oct-2022 9:55pm PDT
Mist, Clear
Mist, Clear
 Wind from calm
Wind: Calm
Temperature: 48°F , 9°C
Dew Point: 48°F , 9°C
Humidity: 100%
Barometer: 30.17 inHg , 1021.7 hPa
Visibility: 5/8 mile , 1 km
2022/10/06 04:55 KTCM 060455Z AUTO 00000KT 5/8SM R34/2200V4500FT BR CLR 09/09 A3017 RMK AO2 SLP221 T00890089 $
 
KPWT - Bremerton Ntnl, Washington, USA
Distance from station: W 45mi, 73km
Updated: Wed, 05-Oct-2022 9:56pm PDT

 Wind from calm
Wind: Calm
Temperature: 48°F , 9°C
Dew Point: 48°F , 9°C
Humidity: 100%
Barometer: 30.18 inHg , 1022 hPa
Visibility: 10 miles , 16 km
2022/10/06 04:56 KPWT 060456Z AUTO 00000KT 10SM CLR 09/09 A3018 RMK AO2 SLP225 T00890089
KGRF - Fort Lewis/Gray, Washington, USA
Distance from station: SW 48mi, 77km
Updated: Wed, 05-Oct-2022 9:55pm PDT

 Wind from calm
Wind: Calm
Temperature: 52°F , 11°C
Dew Point: 50°F , 10°C
Humidity: 94%
Barometer: 30.15 inHg , 1021 hPa
Visibility: 10 miles , 16 km
2022/10/06 04:55 KGRF 060455Z AUTO 00000KT 10SM CLR 11/10 A3015 RMK AO2 SLP214 T01110098 $
 
KAWO - Arlington Muni, Washington, USA
Distance from station: NNW 50mi, 80km
Updated: Wed, 05-Oct-2022 9:56pm PDT

 Wind from calm
Wind: Calm
Temperature: 54°F , 12°C
Dew Point: 52°F , 11°C
Humidity: 94%
Barometer: 30.18 inHg , 1022 hPa
Visibility: 10 miles , 16 km
2022/10/06 04:56 KAWO 060456Z AUTO 00000KT 10SM CLR 12/11 A3018 RMK AO2 SLP226 T01220111